Time;durP1;ratioP1;P1;durP2;ratioP2;P2;SDS_P1;SDS_P2;PMS_P1;PMS_P2;Temp;Humidity;BMP_temperature;BMP_pressure;BME280_temperature;BME280_humidity;BME280_pressure;Samples;Min_cycle;Max_cycle;Signal;HPM_P1;HPM_P2
2022/05/07 00:02:11;;;;;;;3.97;2.15;;;;;;;12.76;58.77;97850.38;4920746;28;20091;-85
2022/05/07 00:04:37;;;;;;;2.95;2.17;;;;;;;12.72;59.14;97851.88;4908911;28;20633;-85
2022/05/07 00:07:04;;;;;;;2.75;1.75;;;;;;;12.72;59.31;97847.44;4912458;28;20236;-85
2022/05/07 00:09:30;;;;;;;3.08;2.10;;;;;;;12.69;59.10;97847.91;4925949;28;20780;-84
2022/05/07 00:11:56;;;;;;;2.35;2.05;;;;;;;12.68;59.46;97840.31;4910101;28;20090;-85
2022/05/07 00:14:21;;;;;;;4.50;1.90;;;;;;;12.65;59.21;97840.81;4910997;28;20031;-85
2022/05/07 00:19:32;;;;;;;2.35;2.00;;;;;;;12.56;60.19;97845.69;4923932;28;20030;-84
2022/05/07 00:21:58;;;;;;;3.58;2.15;;;;;;;12.41;59.60;97846.25;4916982;28;20026;-85
2022/05/07 00:24:24;;;;;;;3.58;2.00;;;;;;;12.44;59.97;97847.56;4916923;28;20108;-85
2022/05/07 00:26:49;;;;;;;2.35;1.92;;;;;;;12.38;60.41;97840.72;4904683;28;20106;-85
2022/05/07 00:29:15;;;;;;;2.83;2.05;;;;;;;12.35;60.23;97840.16;4923167;28;20121;-85
2022/05/07 00:31:40;;;;;;;4.00;2.35;;;;;;;12.30;60.11;97839.28;4914761;28;20101;-86
2022/05/07 00:34:06;;;;;;;5.78;2.50;;;;;;;12.26;60.12;97840.78;4911484;28;20117;-85
2022/05/07 00:36:32;;;;;;;4.00;2.45;;;;;;;12.17;60.16;97835.19;4912156;28;20203;-85
2022/05/07 00:38:57;;;;;;;2.88;2.20;;;;;;;12.20;60.06;97839.94;4909249;28;20908;-85
2022/05/07 00:41:23;;;;;;;3.05;2.10;;;;;;;12.16;60.22;97834.38;4918747;28;20034;-85
2022/05/07 00:43:48;;;;;;;3.40;1.98;;;;;;;12.15;60.26;97845.84;4909577;28;20634;-85
2022/05/07 00:46:14;;;;;;;3.88;2.28;;;;;;;12.11;60.54;97836.91;4912829;28;20026;-84
2022/05/07 00:48:39;;;;;;;2.78;2.20;;;;;;;12.07;60.40;97829.81;4928541;28;20100;-85
2022/05/07 00:53:49;;;;;;;3.53;2.10;;;;;;;12.13;60.85;97840.09;4922541;28;20038;-85
2022/05/07 00:56:15;;;;;;;2.78;2.20;;;;;;;12.11;60.66;97836.91;4891086;28;20763;-85
2022/05/07 00:58:41;;;;;;;5.57;2.13;;;;;;;12.07;60.80;97833.19;4908079;28;20030;-85
2022/05/07 01:01:06;;;;;;;3.75;2.05;;;;;;;12.05;60.63;97827.44;4912335;28;20043;-85
2022/05/07 01:03:32;;;;;;;2.80;2.30;;;;;;;12.03;61.38;97832.09;4906145;28;20030;-85
2022/05/07 01:05:57;;;;;;;3.35;2.20;;;;;;;12.04;61.15;97830.28;4912537;28;20718;-85
2022/05/07 01:08:25;;;;;;;4.20;2.38;;;;;;;11.96;60.59;97831.44;4895379;28;20030;-85
2022/05/07 01:10:51;;;;;;;2.33;2.00;;;;;;;11.94;60.83;97836.09;4928194;28;20026;-85
2022/05/07 01:13:17;;;;;;;2.58;1.73;;;;;;;11.97;60.69;97831.22;4928352;28;20875;-85
2022/05/07 01:15:46;;;;;;;3.08;2.00;;;;;;;11.95;60.70;97837.69;4896715;28;20022;-84
2022/05/07 01:18:13;;;;;;;2.80;1.98;;;;;;;11.92;60.59;97832.94;4911080;28;20022;-85
2022/05/07 01:20:39;;;;;;;3.13;2.22;;;;;;;11.85;60.98;97827.84;4927804;28;20054;-85
2022/05/07 01:23:05;;;;;;;3.65;2.00;;;;;;;11.84;60.62;97825.47;4911828;28;20057;-85
2022/05/07 01:25:30;;;;;;;3.67;1.95;;;;;;;11.81;60.81;97827.53;4926871;28;20030;-85
2022/05/07 01:27:56;;;;;;;2.75;1.70;;;;;;;11.77;61.29;97823.81;4910880;28;20026;-85
2022/05/07 01:30:23;;;;;;;2.22;2.00;;;;;;;11.75;61.10;97818.03;4927797;28;20760;-85
2022/05/07 01:32:49;;;;;;;2.58;2.20;;;;;;;11.75;61.16;97828.47;4909354;28;20025;-85
2022/05/07 01:35:14;;;;;;;4.22;2.55;;;;;;;11.76;60.70;97824.84;4924505;28;20019;-85
2022/05/07 01:37:40;;;;;;;2.78;1.98;;;;;;;11.65;60.92;97807.44;4908994;28;20038;-85
2022/05/07 01:40:06;;;;;;;2.75;2.10;;;;;;;11.68;61.09;97817.41;4891180;28;20837;-85
2022/05/07 01:42:31;;;;;;;4.50;2.10;;;;;;;11.68;61.34;97820.00;4893332;28;20039;-85
2022/05/07 01:44:57;;;;;;;2.20;1.83;;;;;;;11.66;61.00;97809.00;4893843;28;20231;-85
2022/05/07 01:50:07;;;;;;;4.03;2.72;;;;;;;11.65;61.31;97809.25;4907915;28;20066;-85
2022/05/07 01:52:32;;;;;;;3.45;2.15;;;;;;;11.62;61.19;97818.34;4911977;28;20014;-85
2022/05/07 01:54:57;;;;;;;3.88;2.22;;;;;;;11.54;61.57;97805.69;4895931;28;20033;-85
2022/05/07 01:57:23;;;;;;;2.40;1.85;;;;;;;11.57;61.54;97810.44;4911007;28;20622;-85
2022/05/07 01:59:48;;;;;;;3.78;2.83;;;;;;;11.50;61.72;97799.34;4926956;28;20073;-85
2022/05/07 02:02:17;;;;;;;2.75;2.00;;;;;;;11.54;61.51;97818.72;4915011;28;20713;-85
2022/05/07 02:04:48;;;;;;;2.38;2.10;;;;;;;11.52;62.03;97812.97;4915220;28;20034;-85
2022/05/07 02:07:15;;;;;;;3.28;2.22;;;;;;;11.53;62.31;97814.53;4897292;28;20037;-85
2022/05/07 02:09:41;;;;;;;3.92;2.40;;;;;;;11.51;61.80;97811.38;4910266;28;20034;-85
2022/05/07 02:12:07;;;;;;;2.35;2.03;;;;;;;11.48;62.13;97810.03;4926675;28;20765;-85
2022/05/07 02:14:32;;;;;;;3.35;2.45;;;;;;;11.45;62.16;97810.50;4927935;28;20108;-85
2022/05/07 02:16:58;;;;;;;2.60;2.20;;;;;;;11.45;61.78;97813.09;4926353;28;20109;-85
2022/05/07 02:19:23;;;;;;;3.42;2.13;;;;;;;11.46;62.14;97814.66;4942754;28;20053;-85
2022/05/07 02:21:49;;;;;;;3.05;2.45;;;;;;;11.40;62.18;97818.22;4891919;28;20034;-85
2022/05/07 02:24:14;;;;;;;2.70;2.10;;;;;;;11.28;61.94;97802.63;4898069;28;20026;-85
2022/05/07 02:26:39;;;;;;;6.03;2.80;;;;;;;11.35;62.28;97813.69;4927320;28;20018;-85
2022/05/07 02:29:05;;;;;;;4.28;2.58;;;;;;;11.34;62.29;97812.09;4925898;28;20706;-85
2022/05/07 02:31:30;;;;;;;2.92;2.38;;;;;;;11.36;62.34;97810.06;4927109;28;20037;-85
2022/05/07 02:33:56;;;;;;;3.90;2.72;;;;;;;11.36;62.37;97817.09;4910768;28;20034;-85
2022/05/07 02:36:21;;;;;;;3.38;2.40;;;;;;;11.34;62.45;97812.09;4910849;28;20759;-85
2022/05/07 02:38:46;;;;;;;4.15;2.58;;;;;;;11.26;62.33;97799.47;4894584;28;20018;-85
2022/05/07 02:43:56;;;;;;;3.40;3.08;;;;;;;11.27;62.31;97801.03;4913347;28;20701;-85
2022/05/07 02:46:22;;;;;;;3.22;2.47;;;;;;;11.30;62.19;97813.59;4908773;28;20041;-85
2022/05/07 02:48:47;;;;;;;3.40;3.03;;;;;;;11.28;62.34;97804.44;4894385;28;20026;-85
2022/05/07 02:51:13;;;;;;;3.53;2.63;;;;;;;11.25;62.32;97808.28;4911072;28;20030;-85
2022/05/07 02:53:38;;;;;;;4.78;2.95;;;;;;;11.23;62.25;97810.34;4909516;28;20718;-85
2022/05/07 02:56:04;;;;;;;3.45;2.97;;;;;;;11.22;62.39;97806.16;4910361;28;20101;-85
2022/05/07 02:58:30;;;;;;;4.78;3.03;;;;;;;11.20;62.27;97803.00;4904579;28;20103;-85
2022/05/07 03:00:56;;;;;;;4.93;3.25;;;;;;;11.16;62.26;97788.84;4909972;28;20238;-85
2022/05/07 03:03:21;;;;;;;4.93;3.00;;;;;;;11.18;62.30;97799.81;4926439;28;20038;-85
2022/05/07 03:05:47;;;;;;;3.50;3.03;;;;;;;11.18;62.26;97798.00;4925305;28;20026;-86
2022/05/07 03:08:12;;;;;;;3.58;3.08;;;;;;;11.18;62.69;97797.22;4907251;28;20033;-85
2022/05/07 03:10:37;;;;;;;3.50;3.05;;;;;;;11.18;62.65;97807.66;4925339;28;20030;-86
2022/05/07 03:13:03;;;;;;;5.38;3.80;;;;;;;11.13;62.68;97797.13;4933811;28;20034;-85
2022/05/07 03:15:28;;;;;;;4.10;3.58;;;;;;;11.16;62.63;97794.06;4897348;28;20830;-85
2022/05/07 03:17:54;;;;;;;5.28;3.40;;;;;;;11.14;62.75;97789.09;4910907;28;20030;-85
2022/05/07 03:20:19;;;;;;;5.38;3.53;;;;;;;11.14;62.64;97793.47;4911812;28;20030;-86
2022/05/07 03:22:46;;;;;;;4.70;4.00;;;;;;;11.12;62.73;97800.75;4930091;28;20598;-85
2022/05/07 03:25:12;;;;;;;4.32;3.88;;;;;;;11.10;63.22;97794.97;4930224;28;20026;-85
2022/05/07 03:27:37;;;;;;;4.55;3.42;;;;;;;11.06;62.57;97787.63;4930500;28;20032;-85
2022/05/07 03:30:04;;;;;;;6.45;3.53;;;;;;;11.05;62.74;97788.66;4914859;28;20046;-85
2022/05/07 03:32:30;;;;;;;4.82;3.47;;;;;;;11.06;62.62;97795.44;4902039;28;20034;-85
2022/05/07 03:34:57;;;;;;;6.18;4.20;;;;;;;11.04;63.09;97792.28;4930414;28;20031;-85
2022/05/07 03:37:23;;;;;;;5.90;4.38;;;;;;;11.03;63.11;97795.13;4898142;28;20117;-85
2022/05/07 03:39:50;;;;;;;6.00;4.70;;;;;;;11.06;62.98;97799.88;4898043;28;20645;-85
2022/05/07 03:42:16;;;;;;;5.88;4.30;;;;;;;11.03;62.87;97798.50;4913146;28;20100;-85
2022/05/07 03:44:42;;;;;;;6.90;4.60;;;;;;;11.03;63.08;97795.13;4897837;28;20034;-86
2022/05/07 03:47:07;;;;;;;5.00;4.43;;;;;;;10.99;62.91;97800.00;4897786;28;20169;-86
2022/05/07 03:49:33;;;;;;;5.60;4.93;;;;;;;10.99;63.00;97802.59;4905271;28;20031;-86
2022/05/07 03:54:43;;;;;;;6.88;5.43;;;;;;;10.95;62.94;97811.09;4916185;28;20033;-85
2022/05/07 03:57:09;;;;;;;7.15;5.38;;;;;;;10.95;63.04;97808.50;4930440;28;20033;-85
2022/05/07 03:59:35;;;;;;;6.22;5.60;;;;;;;10.92;63.20;97799.34;4925708;28;20027;-86
2022/05/07 04:02:00;;;;;;;6.35;5.45;;;;;;;10.93;63.38;97798.31;4913840;28;20743;-86
2022/05/07 04:04:25;;;;;;;8.18;5.85;;;;;;;10.95;63.44;97792.88;4929024;28;20097;-85
2022/05/07 04:06:51;;;;;;;6.63;5.93;;;;;;;10.93;63.19;97800.13;4913951;28;20886;-86
2022/05/07 04:09:16;;;;;;;7.13;5.47;;;;;;;10.95;63.46;97793.69;4929351;28;20019;-85
2022/05/07 04:11:41;;;;;;;6.13;5.45;;;;;;;10.95;63.14;97791.06;4929765;28;20033;-85
2022/05/07 04:14:07;;;;;;;6.80;4.95;;;;;;;10.90;63.28;97782.34;4911473;28;20024;-86
2022/05/07 04:16:32;;;;;;;6.13;5.25;;;;;;;10.98;63.42;97793.19;4911669;28;20758;-85
2022/05/07 04:18:58;;;;;;;7.55;5.47;;;;;;;10.94;63.50;97778.28;4878212;28;20034;-86
2022/05/07 04:21:23;;;;;;;7.07;5.70;;;;;;;11.03;63.66;97784.69;4879294;28;20030;-86
2022/05/07 04:23:49;;;;;;;6.78;5.63;;;;;;;11.03;63.80;97790.69;4913596;28;20101;-85
2022/05/07 04:26:15;;;;;;;8.50;5.97;;;;;;;11.11;63.20;97792.16;4928443;28;20027;-85
2022/05/07 04:28:40;;;;;;;7.60;5.97;;;;;;;11.18;63.03;97802.44;4911451;28;20042;-86
2022/05/07 04:31:06;;;;;;;8.50;7.00;;;;;;;11.21;63.57;97794.94;4897337;28;20050;-85
2022/05/07 04:33:31;;;;;;;8.05;6.68;;;;;;;11.28;63.51;97800.03;4913159;28;20023;-86
2022/05/07 04:35:57;;;;;;;8.00;7.00;;;;;;;11.31;63.48;97791.75;4928693;28;20635;-85
2022/05/07 04:38:22;;;;;;;9.98;7.43;;;;;;;11.34;63.54;97793.84;4909158;28;20058;-86
2022/05/07 04:40:47;;;;;;;8.68;6.22;;;;;;;11.30;63.28;97779.72;4920444;28;20660;-86
2022/05/07 04:43:15;;;;;;;7.90;6.35;;;;;;;11.42;63.38;97790.88;4913295;28;20026;-85
2022/05/07 04:45:41;;;;;;;8.65;6.93;;;;;;;11.50;63.18;97791.50;4925625;28;20786;-85
2022/05/07 04:48:06;;;;;;;8.63;6.82;;;;;;;11.55;63.21;97796.81;4907020;28;20027;-86
2022/05/07 04:50:32;;;;;;;9.18;7.38;;;;;;;11.60;63.72;97796.91;4923844;28;20100;-85
2022/05/07 04:52:57;;;;;;;8.10;6.85;;;;;;;11.64;63.56;97795.44;4909038;28;20030;-86
2022/05/07 04:55:22;;;;;;;7.93;6.57;;;;;;;11.71;63.58;97796.06;4909649;28;20019;-85
2022/05/07 04:57:48;;;;;;;8.10;6.22;;;;;;;11.79;63.78;97800.13;4899670;28;20833;-85
2022/05/07 05:00:14;;;;;;;9.07;5.63;;;;;;;11.80;63.64;97797.25;4909715;28;20046;-85
2022/05/07 05:02:40;;;;;;;6.75;5.97;;;;;;;11.91;63.83;97803.47;4927789;28;20905;-85
2022/05/07 05:05:05;;;;;;;6.93;5.25;;;;;;;12.03;63.08;97798.16;4907734;28;20033;-85
2022/05/07 05:07:31;;;;;;;7.45;6.53;;;;;;;12.10;62.70;97800.63;4895622;28;20098;-85
2022/05/07 05:09:56;;;;;;;9.30;6.45;;;;;;;12.13;63.13;97794.91;4910881;28;20677;-85
2022/05/07 05:12:22;;;;;;;7.75;6.38;;;;;;;12.20;63.00;97802.56;4903507;28;20023;-85
2022/05/07 05:15:06;;;;;;;8.65;5.80;;;;;;;12.32;62.90;97805.88;4927835;28;20030;-85
2022/05/07 05:17:33;;;;;;;7.32;6.15;;;;;;;12.43;62.85;97812.84;4925956;28;20030;-85
2022/05/07 05:20:00;;;;;;;6.85;6.03;;;;;;;12.51;62.79;97814.25;4900662;28;20043;-85
2022/05/07 05:22:25;;;;;;;7.10;6.10;;;;;;;12.65;62.70;97822.53;4895479;28;20170;-85
2022/05/07 05:24:50;;;;;;;8.02;6.35;;;;;;;12.72;62.61;97816.09;4903632;28;20030;-85
2022/05/07 05:27:16;;;;;;;7.38;6.10;;;;;;;12.85;62.09;97822.00;4909736;28;20692;-85
2022/05/07 05:29:41;;;;;;;8.05;5.95;;;;;;;12.96;61.82;97828.16;4924595;28;20037;-85
2022/05/07 05:32:07;;;;;;;7.93;6.68;;;;;;;13.04;61.27;97820.66;4917931;28;20030;-86
2022/05/07 05:34:33;;;;;;;7.28;6.47;;;;;;;13.14;60.97;97833.03;4909091;28;20019;-85
2022/05/07 05:36:58;;;;;;;7.25;6.47;;;;;;;13.27;60.85;97824.84;4877822;28;20034;-85
2022/05/07 05:39:24;;;;;;;8.30;6.38;;;;;;;13.40;60.62;97825.50;4908553;28;20628;-86
2022/05/07 05:41:49;;;;;;;7.53;6.30;;;;;;;13.53;60.06;97824.34;4878064;28;20118;-85
2022/05/07 05:44:15;;;;;;;8.93;7.18;;;;;;;13.67;59.83;97820.28;4911815;28;20159;-85
2022/05/07 05:46:40;;;;;;;7.70;6.18;;;;;;;13.78;59.70;97821.97;4896407;28;20635;-86
2022/05/07 05:49:05;;;;;;;9.18;6.97;;;;;;;13.95;59.17;97832.31;4910888;28;20084;-85
2022/05/07 05:51:31;;;;;;;8.63;7.82;;;;;;;14.14;58.23;97826.69;4923651;28;20022;-85
2022/05/07 05:53:57;;;;;;;10.43;8.60;;;;;;;14.32;57.53;97825.50;4889680;28;20033;-85
2022/05/07 05:56:22;;;;;;;9.18;8.27;;;;;;;14.44;56.63;97826.09;4927654;28;20030;-84
2022/05/07 05:58:48;;;;;;;10.13;8.38;;;;;;;14.58;56.59;97826.44;4896214;28;20795;-85
2022/05/07 06:01:14;;;;;;;8.65;7.25;;;;;;;14.71;56.86;97828.63;4911581;28;20030;-85
2022/05/07 06:03:39;;;;;;;9.52;8.10;;;;;;;14.85;56.46;97821.09;4923966;28;20033;-85
2022/05/07 06:06:05;;;;;;;9.30;8.27;;;;;;;14.79;56.16;97825.53;4928001;28;20089;-85
2022/05/07 06:08:30;;;;;;;11.90;9.48;;;;;;;14.87;55.19;97831.31;4919240;28;20811;-84
2022/05/07 06:10:57;;;;;;;9.70;8.55;;;;;;;14.97;54.97;97828.75;4911917;28;20141;-85
2022/05/07 06:13:24;;;;;;;9.82;8.05;;;;;;;15.12;54.65;97830.66;4912486;28;20015;-84
2022/05/07 06:15:52;;;;;;;12.05;8.35;;;;;;;15.38;54.28;97841.22;4903680;28;20033;-85
2022/05/07 06:18:22;;;;;;;8.60;7.25;;;;;;;15.42;54.70;97835.19;4909011;28;20022;-85
2022/05/07 06:20:51;;;;;;;9.23;6.93;;;;;;;15.58;54.01;97837.84;4903813;28;20081;-85
2022/05/07 06:23:17;;;;;;;9.07;8.13;;;;;;;15.84;54.01;97839.47;4924724;28;20113;-84
2022/05/07 06:28:27;;;;;;;9.48;8.45;;;;;;;16.26;53.28;97840.25;4914090;28;20030;-84
2022/05/07 06:30:53;;;;;;;9.57;8.07;;;;;;;16.45;52.69;97846.53;4898809;28;20606;-85
2022/05/07 06:33:20;;;;;;;9.85;7.47;;;;;;;16.81;52.46;97837.75;4896058;28;20034;-84
2022/05/07 06:35:47;;;;;;;10.20;7.97;;;;;;;16.93;51.93;97842.75;4908470;28;20158;-85
2022/05/07 06:38:12;;;;;;;9.88;8.18;;;;;;;17.23;51.03;97847.88;4911593;28;20113;-85
2022/05/07 06:40:39;;;;;;;8.13;6.95;;;;;;;17.12;50.72;97840.31;4907449;28;20771;-84
2022/05/07 06:43:05;;;;;;;12.32;8.00;;;;;;;17.38;50.57;97841.75;4925239;28;20042;-84
2022/05/07 06:45:31;;;;;;;7.53;6.75;;;;;;;17.38;50.18;97841.75;4917101;28;20026;-84
2022/05/07 06:47:56;;;;;;;7.55;6.75;;;;;;;17.59;49.81;97839.78;4890060;28;20742;-84
2022/05/07 06:50:22;;;;;;;10.38;7.15;;;;;;;17.98;48.87;97840.88;4883073;28;20069;-85
2022/05/07 06:52:48;;;;;;;7.10;6.07;;;;;;;18.19;48.62;97846.75;4891819;28;20022;-83
2022/05/07 06:55:17;;;;;;;7.40;6.30;;;;;;;18.24;47.67;97843.31;4892446;28;20099;-82
2022/05/07 06:57:43;;;;;;;7.30;5.90;;;;;;;18.16;47.33;97839.41;4901373;28;20022;-83
2022/05/07 07:00:10;;;;;;;9.32;5.75;;;;;;;18.60;46.60;97848.22;4872769;28;20100;-82
2022/05/07 07:02:37;;;;;;;7.03;5.95;;;;;;;18.60;46.06;97845.59;4870134;28;20023;-82
2022/05/07 07:05:03;;;;;;;5.03;4.53;;;;;;;18.99;46.17;97853.38;4891953;28;20949;-83
2022/05/07 07:07:29;;;;;;;6.22;5.35;;;;;;;19.00;45.58;97847.00;4898379;28;20110;-83
2022/05/07 07:09:55;;;;;;;4.40;3.92;;;;;;;19.42;44.85;97849.94;4901273;28;20841;-84
2022/05/07 07:12:20;;;;;;;5.47;4.80;;;;;;;19.64;43.86;97847.50;4900070;28;20027;-83
2022/05/07 07:14:47;;;;;;;5.38;3.97;;;;;;;19.94;43.34;97845.47;4904033;28;20023;-81
2022/05/07 07:17:16;;;;;;;5.68;4.00;;;;;;;20.10;42.71;97842.59;4921551;28;20030;-81
2022/05/07 07:19:42;;;;;;;4.43;3.70;;;;;;;20.38;42.63;97854.78;4920862;28;20701;-83
2022/05/07 07:22:08;;;;;;;4.40;3.85;;;;;;;20.67;42.26;97847.72;4919389;28;20027;-83
2022/05/07 07:24:34;;;;;;;3.92;3.60;;;;;;;20.29;41.83;97842.53;4890088;28;20227;-82
2022/05/07 07:26:59;;;;;;;4.63;3.30;;;;;;;20.65;42.12;97847.19;4920192;28;20026;-80
2022/05/07 07:29:25;;;;;;;3.30;3.00;;;;;;;20.70;41.06;97852.41;4898917;28;20038;-82
2022/05/07 07:31:51;;;;;;;3.42;3.00;;;;;;;21.00;41.23;97853.69;4936461;28;20035;-82
2022/05/07 07:34:17;;;;;;;3.53;3.17;;;;;;;21.04;41.35;97853.88;4902918;28;20709;-81
2022/05/07 07:36:44;;;;;;;4.55;3.60;;;;;;;21.28;40.72;97848.34;4914177;28;20034;-83
2022/05/07 07:39:13;;;;;;;2.85;2.63;;;;;;;21.54;40.84;97851.28;4901619;28;20037;-81
2022/05/07 07:41:38;;;;;;;3.42;2.90;;;;;;;21.63;40.62;97854.75;4884301;28;20761;-82
2022/05/07 07:44:04;;;;;;;4.13;3.10;;;;;;;22.08;39.73;97854.75;4913746;28;20031;-81
2022/05/07 07:49:13;;;;;;;3.08;2.60;;;;;;;21.98;39.50;97841.75;4898664;28;20038;-80
2022/05/07 07:51:39;;;;;;;3.13;2.42;;;;;;;22.37;39.18;97842.16;4888659;28;20806;-82
2022/05/07 07:54:04;;;;;;;3.00;2.80;;;;;;;22.29;39.01;97848.19;4904051;28;20082;-80
2022/05/07 07:56:30;;;;;;;4.38;2.60;;;;;;;22.27;37.64;97851.13;4917016;28;20022;-82
2022/05/07 07:58:55;;;;;;;3.63;2.35;;;;;;;22.25;37.65;97850.66;4917284;28;20049;-81
2022/05/07 08:01:21;;;;;;;2.50;2.30;;;;;;;22.59;37.89;97847.41;4867168;28;20746;-81
2022/05/07 08:03:47;;;;;;;2.78;2.55;;;;;;;22.67;37.05;97843.22;4911064;28;20062;-80
2022/05/07 08:06:12;;;;;;;1.98;1.60;;;;;;;22.89;35.63;97845.00;4916967;28;20038;-80
2022/05/07 08:11:40;;;;;;;2.13;2.00;;;;;;;23.32;36.41;97835.56;4918627;28;20035;-80
2022/05/07 08:14:06;;;;;;;2.58;1.95;;;;;;;23.43;35.47;97838.72;4918789;28;20030;-83
2022/05/07 08:16:32;;;;;;;2.05;1.77;;;;;;;23.66;35.70;97849.97;4906448;28;20821;-82
2022/05/07 08:18:57;;;;;;;2.25;2.03;;;;;;;23.89;36.09;97847.97;4908269;28;20038;-81
2022/05/07 08:21:23;;;;;;;2.10;1.90;;;;;;;23.81;34.76;97846.88;4918616;28;20117;-81
2022/05/07 08:23:48;;;;;;;4.63;1.90;;;;;;;23.87;33.71;97844.81;4920569;28;20037;-81
2022/05/07 08:26:14;;;;;;;1.88;1.75;;;;;;;23.97;33.81;97847.16;4915809;28;20084;-81
2022/05/07 08:28:40;;;;;;;2.83;2.35;;;;;;;23.99;34.22;97847.63;4912996;28;20026;-80
2022/05/07 08:31:06;;;;;;;2.15;1.73;;;;;;;24.16;33.52;97848.69;4918944;28;20038;-81
2022/05/07 08:33:31;;;;;;;2.08;1.90;;;;;;;24.01;34.43;97850.75;4899938;28;20026;-81
2022/05/07 08:35:57;;;;;;;1.73;1.63;;;;;;;24.58;33.17;97847.00;4912764;28;20089;-83
2022/05/07 08:38:23;;;;;;;1.70;1.60;;;;;;;24.35;31.46;97843.78;4903237;28;20643;-85
2022/05/07 08:40:48;;;;;;;2.33;1.80;;;;;;;24.46;32.84;97842.34;4894709;28;20109;-80
2022/05/07 08:43:16;;;;;;;2.03;1.83;;;;;;;24.85;32.46;97839.69;4914410;28;20061;-80
2022/05/07 08:45:42;;;;;;;1.83;1.60;;;;;;;25.11;32.27;97831.53;4914257;28;20818;-81
2022/05/07 08:48:08;;;;;;;2.00;1.80;;;;;;;25.15;31.26;97843.09;4909096;28;20042;-80
2022/05/07 08:50:33;;;;;;;2.28;1.77;;;;;;;24.77;31.96;97841.28;4908665;28;20661;-79
2022/05/07 08:52:59;;;;;;;3.13;1.67;;;;;;;24.65;31.85;97833.22;4906134;28;20094;-80
2022/05/07 08:55:24;;;;;;;1.90;1.63;;;;;;;24.83;32.04;97836.56;4881237;28;20042;-81
2022/05/07 08:57:52;;;;;;;1.55;1.45;;;;;;;25.52;29.79;97835.34;4892561;28;20558;-82
2022/05/07 09:00:21;;;;;;;1.80;1.30;;;;;;;25.82;29.57;97831.81;4888701;28;20221;-82
2022/05/07 09:02:57;;;;;;;4.75;1.48;;;;;;;26.06;29.88;97831.13;4904573;28;20570;-80
2022/05/07 09:05:34;;;;;;;1.80;1.70;;;;;;;26.09;29.08;97831.22;4859229;28;20172;-82
2022/05/07 09:08:00;;;;;;;2.03;1.73;;;;;;;25.20;28.96;97834.16;4875704;28;20711;-84
2022/05/07 09:10:33;;;;;;;1.92;1.30;;;;;;;24.89;28.87;97826.50;4861465;28;20210;-82
2022/05/07 09:13:19;;;;;;;2.08;1.40;;;;;;;25.35;30.33;97836.25;4874418;28;20393;-82
2022/05/07 09:15:52;;;;;;;2.33;1.50;;;;;;;25.54;29.65;97833.13;4891105;28;20794;-80
2022/05/07 09:18:19;;;;;;;1.70;1.60;;;;;;;26.08;29.70;97827.03;4906742;28;20194;-81
2022/05/07 09:21:16;;;;;;;2.28;1.85;;;;;;;25.84;29.30;97819.72;4907013;28;20280;-80
2022/05/07 09:23:46;;;;;;;1.50;1.40;;;;;;;26.37;28.58;97819.16;4889245;28;20202;-80
2022/05/07 09:26:26;;;;;;;2.70;1.63;;;;;;;26.00;28.88;97819.13;4907744;28;20382;-81
2022/05/07 09:28:52;;;;;;;2.25;1.52;;;;;;;25.83;28.27;97818.13;4913825;28;20205;-81
2022/05/07 09:31:29;;;;;;;2.25;1.55;;;;;;;26.26;29.59;97824.94;4883462;28;20167;-79
2022/05/07 09:33:55;;;;;;;2.10;1.67;;;;;;;26.87;28.61;97818.06;4891262;28;20205;-81
2022/05/07 09:36:28;;;;;;;1.73;1.38;;;;;;;26.88;28.20;97817.72;4894963;28;20201;-78
2022/05/07 09:39:01;;;;;;;3.88;2.10;;;;;;;26.21;26.83;97822.47;4881551;28;20250;-79
2022/05/07 09:41:26;;;;;;;2.75;2.15;;;;;;;26.45;27.56;97820.94;4916427;28;20186;-81
2022/05/07 09:43:52;;;;;;;1.77;1.60;;;;;;;26.97;28.13;97812.25;4913647;28;20221;-80
2022/05/07 09:46:19;;;;;;;2.13;1.80;;;;;;;26.73;30.27;97805.06;4899267;28;20652;-80
2022/05/07 09:48:46;;;;;;;2.53;1.80;;;;;;;25.93;28.44;97812.38;4894558;28;20302;-83
2022/05/07 09:51:11;;;;;;;2.45;1.58;;;;;;;25.59;29.40;97814.25;4892670;28;20269;-80
2022/05/07 09:59:06;;;;;;;1.92;1.80;;;;;;;25.08;28.47;97815.41;4905919;28;20650;-81
2022/05/07 10:01:37;;;;;;;2.03;1.60;;;;;;;24.42;30.01;97819.31;4891689;28;20204;-81
2022/05/07 10:04:35;;;;;;;1.85;1.73;;;;;;;24.27;31.74;97818.75;4891315;28;20198;-79
2022/05/07 10:07:14;;;;;;;2.97;1.42;;;;;;;24.15;30.24;97817.88;4893896;28;20286;-80
2022/05/07 10:10:04;;;;;;;2.40;1.73;;;;;;;24.22;30.12;97810.19;4904130;28;20366;-81
2022/05/07 10:12:30;;;;;;;2.50;1.58;;;;;;;24.31;31.14;97809.03;4907054;28;20188;-82
2022/05/07 10:15:06;;;;;;;1.83;1.70;;;;;;;24.38;31.29;97805.88;4905108;28;20103;-83
2022/05/07 10:17:31;;;;;;;1.83;1.73;;;;;;;24.62;32.99;97802.66;4920941;28;20238;-83
2022/05/07 10:20:05;;;;;;;2.63;1.85;;;;;;;24.53;29.97;97809.13;4894331;28;20687;-82
2022/05/07 10:22:30;;;;;;;1.98;1.60;;;;;;;24.77;29.59;97800.56;4907867;28;20653;-83
2022/05/07 10:25:12;;;;;;;3.13;1.80;;;;;;;24.52;28.81;97810.22;4907044;28;20246;-81
2022/05/07 10:27:38;;;;;;;1.73;1.42;;;;;;;25.51;28.28;97801.00;4907399;28;20637;-82
2022/05/07 10:30:04;;;;;;;1.88;1.30;;;;;;;25.98;28.40;97798.88;4888490;28;20209;-84
2022/05/07 10:32:29;;;;;;;2.78;1.58;;;;;;;25.97;27.62;97793.84;4908625;28;20165;-81
2022/05/07 10:34:56;;;;;;;2.13;1.50;;;;;;;25.91;27.63;97793.25;4900685;28;20268;-81
2022/05/07 10:37:21;;;;;;;2.47;1.65;;;;;;;25.23;26.73;97785.53;4905401;28;20396;-82
2022/05/07 10:39:53;;;;;;;1.77;1.30;;;;;;;24.67;28.23;97791.06;4891625;28;20359;-82
2022/05/07 10:42:21;;;;;;;2.72;1.98;;;;;;;24.41;28.56;97789.28;4906904;28;20252;-85
2022/05/07 10:44:47;;;;;;;2.95;1.60;;;;;;;23.69;28.25;97793.53;4891091;28;20281;-83
2022/05/07 10:47:15;;;;;;;1.58;1.35;;;;;;;23.98;28.37;97792.88;4860584;28;20265;-81
2022/05/07 10:49:50;;;;;;;1.67;1.55;;;;;;;24.01;28.72;97786.13;4897698;28;20097;-83
2022/05/07 10:52:27;;;;;;;1.50;1.40;;;;;;;23.32;28.76;97775.25;4873677;28;20277;-84
2022/05/07 10:55:03;;;;;;;1.60;1.50;;;;;;;23.65;29.14;97785.41;4906845;28;20163;-82
2022/05/07 10:57:37;;;;;;;1.48;1.30;;;;;;;23.74;29.18;97791.47;4888766;28;20691;-83
2022/05/07 11:00:03;;;;;;;4.15;2.08;;;;;;;24.00;29.74;97784.56;4888238;28;20374;-85
2022/05/07 11:02:31;;;;;;;2.00;1.30;;;;;;;24.89;29.66;97782.00;4879742;28;20159;-82
2022/05/07 11:04:59;;;;;;;2.53;1.30;;;;;;;25.24;29.05;97763.09;4921275;28;20642;-83
2022/05/07 11:07:26;;;;;;;1.92;1.42;;;;;;;24.71;28.38;97773.34;4896890;28;20287;-81
2022/05/07 11:09:52;;;;;;;1.58;1.48;;;;;;;24.23;27.57;97782.44;4901924;28;20185;-82
2022/05/07 11:12:18;;;;;;;1.90;1.50;;;;;;;24.00;28.61;97780.03;4878648;28;20210;-81
2022/05/07 11:14:43;;;;;;;1.95;1.30;;;;;;;23.81;29.51;97782.25;4887275;28;20118;-84
2022/05/07 11:17:09;;;;;;;3.22;1.65;;;;;;;23.91;29.62;97772.06;4890778;28;20217;-82
2022/05/07 11:19:38;;;;;;;2.42;1.52;;;;;;;23.71;28.78;97773.47;4890988;28;20288;-82
2022/05/07 11:22:05;;;;;;;1.30;1.20;;;;;;;24.01;29.07;97778.13;4867858;28;20580;-82
2022/05/07 11:24:32;;;;;;;1.95;1.70;;;;;;;23.95;28.85;97774.88;4903711;28;20162;-83
2022/05/07 11:27:00;;;;;;;1.63;1.52;;;;;;;23.87;30.91;97781.00;4896216;28;20174;-84
2022/05/07 11:29:25;;;;;;;2.22;1.42;;;;;;;23.85;29.94;97762.69;4869198;28;20111;-84
2022/05/07 11:32:03;;;;;;;3.58;1.40;;;;;;;23.69;30.16;97766.94;4900268;28;20685;-83
2022/05/07 11:34:42;;;;;;;3.38;1.65;;;;;;;23.67;30.50;97772.56;4889318;28;20697;-82
2022/05/07 11:37:15;;;;;;;1.58;1.40;;;;;;;24.19;29.43;97765.56;4886030;28;20207;-83
2022/05/07 11:39:52;;;;;;;2.53;1.77;;;;;;;24.64;28.28;97765.06;4893274;28;20214;-80
2022/05/07 11:42:33;;;;;;;2.22;1.88;;;;;;;25.03;27.32;97760.44;4891184;28;20645;-81
2022/05/07 11:48:13;;;;;;;2.05;1.63;;;;;;;24.78;27.62;97762.16;4909523;28;20663;-84
2022/05/07 11:50:41;;;;;;;2.57;1.70;;;;;;;25.17;29.22;97762.84;4903934;28;20228;-82
2022/05/07 11:53:17;;;;;;;1.90;1.70;;;;;;;24.48;28.25;97762.91;4878105;28;20489;-81
2022/05/07 11:55:44;;;;;;;2.58;1.80;;;;;;;24.16;28.68;97768.88;4877861;28;20196;-85
2022/05/07 11:58:21;;;;;;;2.53;2.25;;;;;;;23.57;29.26;97762.25;4876508;28;20304;-84
2022/05/07 12:00:47;;;;;;;2.22;1.92;;;;;;;23.84;29.85;97757.72;4909710;28;20174;-83
2022/05/07 12:03:23;;;;;;;2.05;1.73;;;;;;;24.04;29.01;97757.03;4905927;28;20085;-86
2022/05/07 12:05:50;;;;;;;2.83;2.40;;;;;;;24.82;29.69;97761.19;4888729;28;20185;-82